sensor_id;sensor_type;location;lat;lon;timestamp;pressure;altitude;pressure_sealevel;temperature;humidity
66887;BME280;67239;51.680;5.976;2023-05-19T00:02:10;102523.31;;;8.51;67.76
66887;BME280;67239;51.680;5.976;2023-05-19T00:04:56;102520.66;;;8.48;68.03
66887;BME280;67239;51.680;5.976;2023-05-19T00:07:42;102526.72;;;8.43;68.05
66887;BME280;67239;51.680;5.976;2023-05-19T00:10:30;102528.47;;;8.39;68.28
66887;BME280;67239;51.680;5.976;2023-05-19T00:13:18;102531.94;;;8.35;68.45
66887;BME280;67239;51.680;5.976;2023-05-19T00:16:04;102520.53;;;8.31;68.73
66887;BME280;67239;51.680;5.976;2023-05-19T00:18:50;102519.63;;;8.26;68.92
66887;BME280;67239;51.680;5.976;2023-05-19T00:21:35;102519.63;;;8.26;69.48
66887;BME280;67239;51.680;5.976;2023-05-19T00:24:24;102520.47;;;8.22;69.38
66887;BME280;67239;51.680;5.976;2023-05-19T00:27:09;102524.81;;;8.14;69.07
66887;BME280;67239;51.680;5.976;2023-05-19T00:29:56;102529.16;;;8.12;69.58
66887;BME280;67239;51.680;5.976;2023-05-19T00:32:41;102522.13;;;8.07;70.07
66887;BME280;67239;51.680;5.976;2023-05-19T00:35:26;102516.03;;;8.08;70.80
66887;BME280;67239;51.680;5.976;2023-05-19T00:38:11;102511.63;;;8.07;70.96
66887;BME280;67239;51.680;5.976;2023-05-19T00:40:58;102505.50;;;8.05;71.48
66887;BME280;67239;51.680;5.976;2023-05-19T00:43:44;102509.84;;;8.05;71.62
66887;BME280;67239;51.680;5.976;2023-05-19T00:46:30;102506.34;;;8.03;71.80
66887;BME280;67239;51.680;5.976;2023-05-19T00:49:16;102509.84;;;8.03;72.06
66887;BME280;67239;51.680;5.976;2023-05-19T00:52:01;102504.56;;;8.00;72.46
66887;BME280;67239;51.680;5.976;2023-05-19T00:54:50;102493.19;;;7.98;72.79
66887;BME280;67239;51.680;5.976;2023-05-19T00:57:37;102489.66;;;7.96;73.04
66887;BME280;67239;51.680;5.976;2023-05-19T01:00:23;102496.66;;;7.94;73.33
66887;BME280;67239;51.680;5.976;2023-05-19T01:03:09;102484.34;;;7.88;73.44
66887;BME280;67239;51.680;5.976;2023-05-19T01:05:57;102488.75;;;7.89;73.83
66887;BME280;67239;51.680;5.976;2023-05-19T01:08:45;102493.09;;;7.86;74.16
66887;BME280;67239;51.680;5.976;2023-05-19T01:11:31;102489.56;;;7.85;74.38
66887;BME280;67239;51.680;5.976;2023-05-19T01:14:17;102486.09;;;7.86;74.44
66887;BME280;67239;51.680;5.976;2023-05-19T01:23:16;102494.78;;;7.79;75.03
66887;BME280;67239;51.680;5.976;2023-05-19T01:30:11;102502.63;;;7.73;75.16
66887;BME280;67239;51.680;5.976;2023-05-19T01:33:11;102500.84;;;7.69;75.50
66887;BME280;67239;51.680;5.976;2023-05-19T01:36:02;102496.44;;;7.66;75.70
66887;BME280;67239;51.680;5.976;2023-05-19T01:38:52;102505.19;;;7.67;76.07
66887;BME280;67239;51.680;5.976;2023-05-19T01:41:40;102501.69;;;7.66;76.45
66887;BME280;67239;51.680;5.976;2023-05-19T01:44:26;102511.28;;;7.63;76.70
66887;BME280;67239;51.680;5.976;2023-05-19T01:47:12;102506.88;;;7.58;76.96
66887;BME280;67239;51.680;5.976;2023-05-19T01:49:59;102504.25;;;7.58;77.55
66887;BME280;67239;51.680;5.976;2023-05-19T01:52:44;102498.97;;;7.54;77.62
66887;BME280;67239;51.680;5.976;2023-05-19T01:55:30;102503.31;;;7.50;77.75
66887;BME280;67239;51.680;5.976;2023-05-19T02:01:37;102495.34;;;7.42;78.71
66887;BME280;67239;51.680;5.976;2023-05-19T02:04:40;102500.59;;;7.41;79.00
66887;BME280;67239;51.680;5.976;2023-05-19T02:07:54;102489.19;;;7.40;79.53
66887;BME280;67239;51.680;5.976;2023-05-19T02:10:50;102490.91;;;7.37;79.85
66887;BME280;67239;51.680;5.976;2023-05-19T02:13:55;102488.25;;;7.30;79.84
66887;BME280;67239;51.680;5.976;2023-05-19T02:16:47;102482.97;;;7.27;80.41
66887;BME280;67239;51.680;5.976;2023-05-19T02:19:35;102481.16;;;7.23;80.70
66887;BME280;67239;51.680;5.976;2023-05-19T02:22:23;102474.16;;;7.21;81.22
66887;BME280;67239;51.680;5.976;2023-05-19T02:25:09;102471.53;;;7.19;81.43
66887;BME280;67239;51.680;5.976;2023-05-19T02:27:56;102475.88;;;7.19;81.69
66887;BME280;67239;51.680;5.976;2023-05-19T02:30:42;102477.63;;;7.17;81.89
66887;BME280;67239;51.680;5.976;2023-05-19T02:33:27;102472.34;;;7.13;82.12
66887;BME280;67239;51.680;5.976;2023-05-19T02:36:14;102473.25;;;7.15;82.69
66887;BME280;67239;51.680;5.976;2023-05-19T02:39:00;102471.47;;;7.14;82.78
66887;BME280;67239;51.680;5.976;2023-05-19T02:41:49;102468.81;;;7.13;83.10
66887;BME280;67239;51.680;5.976;2023-05-19T02:44:34;102468.84;;;7.14;83.32
66887;BME280;67239;51.680;5.976;2023-05-19T02:47:20;102467.09;;;7.12;83.47
66887;BME280;67239;51.680;5.976;2023-05-19T02:50:06;102469.69;;;7.10;83.82
66887;BME280;67239;51.680;5.976;2023-05-19T02:52:52;102465.28;;;7.09;83.91
66887;BME280;67239;51.680;5.976;2023-05-19T02:55:38;102462.72;;;7.12;84.15
66887;BME280;67239;51.680;5.976;2023-05-19T02:58:23;102476.63;;;7.07;84.43
66887;BME280;67239;51.680;5.976;2023-05-19T03:01:08;102474.00;;;7.07;84.67
66887;BME280;67239;51.680;5.976;2023-05-19T03:03:54;102473.09;;;7.03;84.83
66887;BME280;67239;51.680;5.976;2023-05-19T03:06:40;102463.44;;;6.99;84.86
66887;BME280;67239;51.680;5.976;2023-05-19T03:09:26;102466.91;;;6.95;85.06
66887;BME280;67239;51.680;5.976;2023-05-19T03:12:11;102464.25;;;6.93;85.41
66887;BME280;67239;51.680;5.976;2023-05-19T03:14:56;102469.47;;;6.90;85.70
66887;BME280;67239;51.680;5.976;2023-05-19T03:17:42;102463.28;;;6.85;86.21
66887;BME280;67239;51.680;5.976;2023-05-19T03:20:28;102467.63;;;6.83;86.40
66887;BME280;67239;51.680;5.976;2023-05-19T03:23:14;102464.13;;;6.81;86.59
66887;BME280;67239;51.680;5.976;2023-05-19T03:26:00;102468.47;;;6.79;86.92
66887;BME280;67239;51.680;5.976;2023-05-19T03:28:45;102471.06;;;6.77;87.18
66887;BME280;67239;51.680;5.976;2023-05-19T03:31:31;102466.66;;;6.75;87.30
66887;BME280;67239;51.680;5.976;2023-05-19T03:34:16;102472.81;;;6.75;87.50
66887;BME280;67239;51.680;5.976;2023-05-19T03:37:02;102472.81;;;6.78;87.65
66887;BME280;67239;51.680;5.976;2023-05-19T03:39:47;102466.72;;;6.79;87.89
66887;BME280;67239;51.680;5.976;2023-05-19T03:42:33;102472.88;;;6.80;88.02
66887;BME280;67239;51.680;5.976;2023-05-19T03:45:18;102473.72;;;6.82;88.33
66887;BME280;67239;51.680;5.976;2023-05-19T03:48:07;102476.41;;;6.85;88.15
66887;BME280;67239;51.680;5.976;2023-05-19T03:51:15;102487.78;;;6.89;88.47
66887;BME280;67239;51.680;5.976;2023-05-19T03:54:02;102488.69;;;6.91;88.36
66887;BME280;67239;51.680;5.976;2023-05-19T03:56:48;102490.50;;;6.96;88.23
66887;BME280;67239;51.680;5.976;2023-05-19T03:59:34;102491.41;;;6.98;88.40
66887;BME280;67239;51.680;5.976;2023-05-19T04:02:21;102489.75;;;7.05;88.28
66887;BME280;67239;51.680;5.976;2023-05-19T04:05:06;102487.31;;;7.22;87.70
66887;BME280;67239;51.680;5.976;2023-05-19T04:07:54;102482.97;;;7.27;87.29
66887;BME280;67239;51.680;5.976;2023-05-19T04:10:40;102486.50;;;7.29;87.35
66887;BME280;67239;51.680;5.976;2023-05-19T04:13:25;102489.16;;;7.34;87.38
66887;BME280;67239;51.680;5.976;2023-05-19T04:16:13;102486.56;;;7.37;87.38
66887;BME280;67239;51.680;5.976;2023-05-19T04:18:59;102490.97;;;7.41;87.29
66887;BME280;67239;51.680;5.976;2023-05-19T04:21:45;102488.38;;;7.46;87.21
66887;BME280;67239;51.680;5.976;2023-05-19T04:24:30;102491.91;;;7.50;87.12
66887;BME280;67239;51.680;5.976;2023-05-19T04:27:17;102491.09;;;7.54;86.73
66887;BME280;67239;51.680;5.976;2023-05-19T04:30:04;102492.84;;;7.55;86.90
66887;BME280;67239;51.680;5.976;2023-05-19T04:32:50;102489.41;;;7.62;86.75
66887;BME280;67239;51.680;5.976;2023-05-19T04:35:36;102488.56;;;7.69;86.53
66887;BME280;67239;51.680;5.976;2023-05-19T04:38:22;102486.91;;;7.81;86.05
66887;BME280;67239;51.680;5.976;2023-05-19T04:41:08;102481.72;;;7.87;85.81
66887;BME280;67239;51.680;5.976;2023-05-19T04:43:54;102484.38;;;7.91;85.68
66887;BME280;67239;51.680;5.976;2023-05-19T04:46:41;102485.56;;;8.43;84.13
66887;BME280;67239;51.680;5.976;2023-05-19T04:49:35;102483.94;;;8.72;82.45
66887;BME280;67239;51.680;5.976;2023-05-19T04:52:27;102488.28;;;8.65;82.46
66887;BME280;67239;51.680;5.976;2023-05-19T04:55:13;102490.97;;;8.71;82.47
66887;BME280;67239;51.680;5.976;2023-05-19T04:57:59;102482.31;;;9.14;80.96
66887;BME280;67239;51.680;5.976;2023-05-19T05:00:45;102486.75;;;9.47;79.35
66887;BME280;67239;51.680;5.976;2023-05-19T05:03:30;102478.84;;;9.37;79.12
66887;BME280;67239;51.680;5.976;2023-05-19T05:06:18;102479.69;;;9.12;79.84
66887;BME280;67239;51.680;5.976;2023-05-19T05:09:07;102485.00;;;9.53;78.78
66887;BME280;67239;51.680;5.976;2023-05-19T05:11:55;102479.72;;;9.77;77.76
66887;BME280;67239;51.680;5.976;2023-05-19T05:14:42;102472.66;;;10.06;76.89
66887;BME280;67239;51.680;5.976;2023-05-19T05:17:28;102481.34;;;10.50;75.30
66887;BME280;67239;51.680;5.976;2023-05-19T05:20:14;102479.47;;;10.80;73.71
66887;BME280;67239;51.680;5.976;2023-05-19T05:23:03;102482.19;;;10.64;73.81
66887;BME280;67239;51.680;5.976;2023-05-19T05:25:51;102468.91;;;12.00;70.64
66887;BME280;67239;51.680;5.976;2023-05-19T05:28:37;102459.31;;;14.28;63.03
66887;BME280;67239;51.680;5.976;2023-05-19T05:31:23;102461.00;;;15.87;56.89
66887;BME280;67239;51.680;5.976;2023-05-19T05:34:08;102463.06;;;16.71;53.85
66887;BME280;67239;51.680;5.976;2023-05-19T05:36:54;102458.78;;;17.76;50.43
66887;BME280;67239;51.680;5.976;2023-05-19T05:39:42;102458.81;;;18.51;47.90
66887;BME280;67239;51.680;5.976;2023-05-19T05:42:28;102461.78;;;18.89;45.13
66887;BME280;67239;51.680;5.976;2023-05-19T05:45:14;102463.72;;;19.07;45.58
66887;BME280;67239;51.680;5.976;2023-05-19T05:48:00;102463.13;;;19.44;44.43
66887;BME280;67239;51.680;5.976;2023-05-19T05:50:48;102474.13;;;19.58;43.37
66887;BME280;67239;51.680;5.976;2023-05-19T05:53:43;102465.03;;;19.19;44.33
66887;BME280;67239;51.680;5.976;2023-05-19T05:56:34;102469.16;;;19.49;43.67
66887;BME280;67239;51.680;5.976;2023-05-19T05:59:22;102472.63;;;19.94;42.51
66887;BME280;67239;51.680;5.976;2023-05-19T06:02:08;102460.25;;;19.91;42.13
66887;BME280;67239;51.680;5.976;2023-05-19T06:04:54;102464.78;;;18.34;43.96
66887;BME280;67239;51.680;5.976;2023-05-19T06:07:39;102470.44;;;15.98;49.55
66887;BME280;67239;51.680;5.976;2023-05-19T06:10:30;102472.06;;;14.53;53.70
66887;BME280;67239;51.680;5.976;2023-05-19T06:13:17;102477.19;;;13.69;56.60
66887;BME280;67239;51.680;5.976;2023-05-19T06:16:08;102479.72;;;13.20;59.01
66887;BME280;67239;51.680;5.976;2023-05-19T06:18:58;102478.41;;;12.89;60.13
66887;BME280;67239;51.680;5.976;2023-05-19T06:21:43;102476.00;;;12.72;61.18
66887;BME280;67239;51.680;5.976;2023-05-19T06:24:29;102472.53;;;12.66;61.37
66887;BME280;67239;51.680;5.976;2023-05-19T06:27:14;102471.75;;;12.61;61.92
66887;BME280;67239;51.680;5.976;2023-05-19T06:30:01;102471.69;;;12.64;61.16
66887;BME280;67239;51.680;5.976;2023-05-19T06:32:51;102473.47;;;12.63;61.57
66887;BME280;67239;51.680;5.976;2023-05-19T06:35:37;102477.84;;;12.66;61.49
66887;BME280;67239;51.680;5.976;2023-05-19T06:38:23;102476.84;;;12.74;60.86
66887;BME280;67239;51.680;5.976;2023-05-19T06:41:08;102485.50;;;12.87;60.82
66887;BME280;67239;51.680;5.976;2023-05-19T06:43:54;102485.28;;;13.01;59.41
66887;BME280;67239;51.680;5.976;2023-05-19T06:46:40;102473.59;;;13.16;59.53
66887;BME280;67239;51.680;5.976;2023-05-19T06:49:25;102476.81;;;13.37;59.30
66887;BME280;67239;51.680;5.976;2023-05-19T06:52:13;102479.03;;;13.66;58.36
66887;BME280;67239;51.680;5.976;2023-05-19T06:54:58;102481.31;;;13.87;57.25
66887;BME280;67239;51.680;5.976;2023-05-19T06:57:44;102474.22;;;13.89;56.51
66887;BME280;67239;51.680;5.976;2023-05-19T07:00:30;102481.25;;;13.90;56.17
66887;BME280;67239;51.680;5.976;2023-05-19T07:03:20;102483.97;;;13.88;55.83
66887;BME280;67239;51.680;5.976;2023-05-19T07:06:09;102477.72;;;13.89;55.60
66887;BME280;67239;51.680;5.976;2023-05-19T07:08:54;102475.16;;;13.86;56.16
66887;BME280;67239;51.680;5.976;2023-05-19T07:11:41;102474.00;;;14.00;55.74
66887;BME280;67239;51.680;5.976;2023-05-19T07:14:28;102470.38;;;14.05;55.17
66887;BME280;67239;51.680;5.976;2023-05-19T07:17:13;102475.47;;;14.14;54.65
66887;BME280;67239;51.680;5.976;2023-05-19T07:20:02;102468.41;;;14.15;54.68
66887;BME280;67239;51.680;5.976;2023-05-19T07:22:50;102471.94;;;14.16;54.96
66887;BME280;67239;51.680;5.976;2023-05-19T07:25:36;102472.66;;;14.25;54.99
66887;BME280;67239;51.680;5.976;2023-05-19T07:28:21;102473.97;;;14.48;55.35
66887;BME280;67239;51.680;5.976;2023-05-19T07:31:07;102471.69;;;14.72;54.04
66887;BME280;67239;51.680;5.976;2023-05-19T07:33:52;102478.66;;;14.79;53.84
66887;BME280;67239;51.680;5.976;2023-05-19T07:36:39;102475.09;;;14.80;53.06
66887;BME280;67239;51.680;5.976;2023-05-19T07:39:25;102471.59;;;14.78;52.75
66887;BME280;67239;51.680;5.976;2023-05-19T07:42:13;102481.06;;;14.90;52.38
66887;BME280;67239;51.680;5.976;2023-05-19T07:44:59;102468.56;;;14.95;51.79
66887;BME280;67239;51.680;5.976;2023-05-19T07:47:45;102470.91;;;15.09;53.26
66887;BME280;67239;51.680;5.976;2023-05-19T07:50:30;102468.66;;;15.28;51.78
66887;BME280;67239;51.680;5.976;2023-05-19T07:53:17;102469.31;;;15.38;52.39
66887;BME280;67239;51.680;5.976;2023-05-19T07:56:03;102475.03;;;15.57;49.76
66887;BME280;67239;51.680;5.976;2023-05-19T07:58:49;102465.41;;;15.53;50.72
66887;BME280;67239;51.680;5.976;2023-05-19T08:01:35;102461.63;;;15.62;51.02
66887;BME280;67239;51.680;5.976;2023-05-19T08:04:21;102462.94;;;15.80;50.18
66887;BME280;67239;51.680;5.976;2023-05-19T08:07:06;102456.47;;;15.92;48.94
66887;BME280;67239;51.680;5.976;2023-05-19T08:09:52;102464.06;;;16.04;48.24
66887;BME280;67239;51.680;5.976;2023-05-19T08:12:37;102463.88;;;16.12;47.56
66887;BME280;67239;51.680;5.976;2023-05-19T08:15:22;102452.13;;;16.19;47.68
66887;BME280;67239;51.680;5.976;2023-05-19T08:18:09;102455.41;;;16.29;47.85
66887;BME280;67239;51.680;5.976;2023-05-19T08:20:54;102449.91;;;16.35;47.85
66887;BME280;67239;51.680;5.976;2023-05-19T08:23:40;102438.22;;;16.41;48.59
66887;BME280;67239;51.680;5.976;2023-05-19T08:26:25;102443.94;;;16.57;48.58
66887;BME280;67239;51.680;5.976;2023-05-19T08:29:12;102443.59;;;16.69;48.80
66887;BME280;67239;51.680;5.976;2023-05-19T08:31:57;102442.19;;;16.86;46.58
66887;BME280;67239;51.680;5.976;2023-05-19T08:34:42;102428.59;;;16.95;47.64
66887;BME280;67239;51.680;5.976;2023-05-19T08:37:27;102428.28;;;17.04;47.34
66887;BME280;67239;51.680;5.976;2023-05-19T08:40:15;102428.13;;;17.11;46.74
66887;BME280;67239;51.680;5.976;2023-05-19T08:43:02;102415.16;;;17.27;46.58
66887;BME280;67239;51.680;5.976;2023-05-19T08:45:47;102414.59;;;17.44;45.88
66887;BME280;67239;51.680;5.976;2023-05-19T08:48:34;102409.53;;;17.61;45.73
66887;BME280;67239;51.680;5.976;2023-05-19T08:51:37;102404.53;;;17.77;43.52
66887;BME280;67239;51.680;5.976;2023-05-19T08:54:36;102409.31;;;17.67;43.58
66887;BME280;67239;51.680;5.976;2023-05-19T08:57:30;102399.28;;;17.74;44.43
66887;BME280;67239;51.680;5.976;2023-05-19T09:00:17;102401.28;;;17.93;41.23
66887;BME280;67239;51.680;5.976;2023-05-19T09:03:04;102397.97;;;17.86;42.13
66887;BME280;67239;51.680;5.976;2023-05-19T09:06:07;102390.94;;;18.09;40.90
66887;BME280;67239;51.680;5.976;2023-05-19T09:08:52;102394.44;;;18.11;39.56
66887;BME280;67239;51.680;5.976;2023-05-19T09:11:38;102397.94;;;18.13;40.08
66887;BME280;67239;51.680;5.976;2023-05-19T09:14:23;102389.66;;;18.21;39.64
66887;BME280;67239;51.680;5.976;2023-05-19T09:17:08;102396.22;;;18.34;38.50
66887;BME280;67239;51.680;5.976;2023-05-19T09:19:54;102399.59;;;18.39;38.08
66887;BME280;67239;51.680;5.976;2023-05-19T09:22:43;102392.84;;;18.53;38.80
66887;BME280;67239;51.680;5.976;2023-05-19T09:25:31;102388.66;;;18.69;38.19
66887;BME280;67239;51.680;5.976;2023-05-19T09:28:23;102396.94;;;18.84;37.40
66887;BME280;67239;51.680;5.976;2023-05-19T09:31:14;102385.66;;;18.77;36.64
66887;BME280;67239;51.680;5.976;2023-05-19T09:34:00;102379.44;;;18.76;37.49
66887;BME280;67239;51.680;5.976;2023-05-19T09:36:46;102376.50;;;18.83;37.80
66887;BME280;67239;51.680;5.976;2023-05-19T09:39:37;102380.00;;;18.85;37.27
66887;BME280;67239;51.680;5.976;2023-05-19T09:42:23;102371.06;;;18.86;37.03
66887;BME280;67239;51.680;5.976;2023-05-19T09:45:14;102375.53;;;18.85;37.43
66887;BME280;67239;51.680;5.976;2023-05-19T09:48:03;102370.50;;;19.00;36.89
66887;BME280;67239;51.680;5.976;2023-05-19T09:50:49;102378.31;;;19.04;36.67
66887;BME280;67239;51.680;5.976;2023-05-19T09:53:38;102370.00;;;19.12;38.14
66887;BME280;67239;51.680;5.976;2023-05-19T09:56:30;102363.34;;;19.43;36.90
66887;BME280;67239;51.680;5.976;2023-05-19T09:59:18;102354.59;;;19.39;36.17
66887;BME280;67239;51.680;5.976;2023-05-19T10:02:14;102350.44;;;19.32;36.64
66887;BME280;67239;51.680;5.976;2023-05-19T10:05:05;102360.03;;;19.57;35.87
66887;BME280;67239;51.680;5.976;2023-05-19T10:07:54;102362.59;;;19.60;36.13
66887;BME280;67239;51.680;5.976;2023-05-19T10:10:46;102364.47;;;19.58;37.03
66887;BME280;67239;51.680;5.976;2023-05-19T10:13:34;102369.16;;;19.74;36.80
66887;BME280;67239;51.680;5.976;2023-05-19T10:16:25;102364.56;;;19.96;35.58
66887;BME280;67239;51.680;5.976;2023-05-19T10:19:14;102369.78;;;19.99;34.99
66887;BME280;67239;51.680;5.976;2023-05-19T10:22:01;102370.63;;;20.00;34.75
66887;BME280;67239;51.680;5.976;2023-05-19T10:24:50;102363.03;;;19.91;35.17
66887;BME280;67239;51.680;5.976;2023-05-19T10:27:40;102360.81;;;19.80;36.21
66887;BME280;67239;51.680;5.976;2023-05-19T10:30:31;102362.78;;;19.97;35.45
66887;BME280;67239;51.680;5.976;2023-05-19T10:33:30;102344.19;;;19.73;35.53
66887;BME280;67239;51.680;5.976;2023-05-19T10:36:43;102355.50;;;19.38;35.67
66887;BME280;67239;51.680;5.976;2023-05-19T10:39:33;102342.16;;;19.38;35.28
66887;BME280;67239;51.680;5.976;2023-05-19T10:42:38;102334.38;;;19.53;36.14
66887;BME280;67239;51.680;5.976;2023-05-19T10:45:29;102325.81;;;19.84;35.75
66887;BME280;67239;51.680;5.976;2023-05-19T10:48:20;102328.75;;;20.18;34.59
66887;BME280;67239;51.680;5.976;2023-05-19T10:51:07;102327.16;;;20.33;35.80
66887;BME280;67239;51.680;5.976;2023-05-19T10:54:02;102327.63;;;20.60;33.67
66887;BME280;67239;51.680;5.976;2023-05-19T10:56:59;102330.09;;;20.46;34.04
66887;BME280;67239;51.680;5.976;2023-05-19T10:59:47;102327.50;;;20.44;33.09
66887;BME280;67239;51.680;5.976;2023-05-19T11:02:37;102322.75;;;20.32;34.02
66887;BME280;67239;51.680;5.976;2023-05-19T11:05:28;102327.81;;;20.38;33.19
66887;BME280;67239;51.680;5.976;2023-05-19T11:08:31;102327.06;;;20.54;33.06
66887;BME280;67239;51.680;5.976;2023-05-19T11:11:19;102322.88;;;20.48;32.90
66887;BME280;67239;51.680;5.976;2023-05-19T11:14:09;102323.75;;;20.48;33.62
66887;BME280;67239;51.680;5.976;2023-05-19T11:16:59;102322.50;;;20.56;33.78
66887;BME280;67239;51.680;5.976;2023-05-19T11:19:56;102324.00;;;20.61;33.44
66887;BME280;67239;51.680;5.976;2023-05-19T11:23:00;102328.78;;;20.55;33.51
66887;BME280;67239;51.680;5.976;2023-05-19T11:25:50;102334.19;;;20.16;33.34
66887;BME280;67239;51.680;5.976;2023-05-19T11:28:38;102333.25;;;20.17;33.89
66887;BME280;67239;51.680;5.976;2023-05-19T11:31:25;102327.66;;;20.41;33.46
66887;BME280;67239;51.680;5.976;2023-05-19T11:34:13;102324.81;;;20.63;33.39
66887;BME280;67239;51.680;5.976;2023-05-19T11:37:03;102312.72;;;20.74;33.49
66887;BME280;67239;51.680;5.976;2023-05-19T11:39:50;102316.88;;;20.43;32.56
66887;BME280;67239;51.680;5.976;2023-05-19T11:42:36;102315.97;;;20.25;33.09
66887;BME280;67239;51.680;5.976;2023-05-19T11:45:27;102306.00;;;20.46;33.09
66887;BME280;67239;51.680;5.976;2023-05-19T11:48:13;102312.94;;;20.50;34.22
66887;BME280;67239;51.680;5.976;2023-05-19T11:51:05;102302.75;;;20.76;34.44
66887;BME280;67239;51.680;5.976;2023-05-19T11:53:51;102308.72;;;21.00;33.24
66887;BME280;67239;51.680;5.976;2023-05-19T11:56:39;102302.88;;;21.09;32.83
66887;BME280;67239;51.680;5.976;2023-05-19T11:59:32;102301.97;;;21.26;32.83
66887;BME280;67239;51.680;5.976;2023-05-19T12:02:24;102289.94;;;21.51;32.19
66887;BME280;67239;51.680;5.976;2023-05-19T12:05:17;102300.66;;;21.69;31.32
66887;BME280;67239;51.680;5.976;2023-05-19T12:08:04;102298.25;;;21.47;31.23
66887;BME280;67239;51.680;5.976;2023-05-19T12:10:51;102295.59;;;21.29;31.62
66887;BME280;67239;51.680;5.976;2023-05-19T12:13:36;102297.84;;;21.37;32.09
66887;BME280;67239;51.680;5.976;2023-05-19T12:16:22;102286.13;;;21.39;32.01
66887;BME280;67239;51.680;5.976;2023-05-19T12:19:17;102291.69;;;21.52;31.71
66887;BME280;67239;51.680;5.976;2023-05-19T12:22:05;102289.06;;;21.17;32.80
66887;BME280;67239;51.680;5.976;2023-05-19T12:24:51;102281.34;;;21.11;32.38
66887;BME280;67239;51.680;5.976;2023-05-19T12:27:37;102288.84;;;21.38;31.51
66887;BME280;67239;51.680;5.976;2023-05-19T12:30:27;102280.31;;;21.65;31.36
66887;BME280;67239;51.680;5.976;2023-05-19T12:33:17;102279.31;;;21.83;30.57
66887;BME280;67239;51.680;5.976;2023-05-19T12:36:04;102277.06;;;21.92;30.80
66887;BME280;67239;51.680;5.976;2023-05-19T12:38:53;102271.94;;;22.03;30.88
66887;BME280;67239;51.680;5.976;2023-05-19T12:41:39;102283.31;;;21.92;30.41
66887;BME280;67239;51.680;5.976;2023-05-19T12:44:24;102286.47;;;21.49;30.56
66887;BME280;67239;51.680;5.976;2023-05-19T12:47:16;102275.38;;;21.06;30.74
66887;BME280;67239;51.680;5.976;2023-05-19T12:50:05;102275.13;;;21.10;30.95
66887;BME280;67239;51.680;5.976;2023-05-19T12:52:53;102274.69;;;21.18;31.46
66887;BME280;67239;51.680;5.976;2023-05-19T12:55:43;102272.28;;;21.47;30.80
66887;BME280;67239;51.680;5.976;2023-05-19T12:58:32;102274.16;;;21.12;30.75
66887;BME280;67239;51.680;5.976;2023-05-19T13:01:18;102264.44;;;21.26;30.54
66887;BME280;67239;51.680;5.976;2023-05-19T13:04:05;102259.84;;;21.46;30.67
66887;BME280;67239;51.680;5.976;2023-05-19T13:06:52;102254.19;;;21.68;30.03
66887;BME280;67239;51.680;5.976;2023-05-19T13:09:39;102240.25;;;21.78;30.53
66887;BME280;67239;51.680;5.976;2023-05-19T13:12:25;102253.06;;;21.88;31.06
66887;BME280;67239;51.680;5.976;2023-05-19T13:15:11;102243.09;;;22.07;30.46
66887;BME280;67239;51.680;5.976;2023-05-19T13:17:56;102240.78;;;22.00;30.31
66887;BME280;67239;51.680;5.976;2023-05-19T13:20:43;102236.09;;;22.04;30.72
66887;BME280;67239;51.680;5.976;2023-05-19T13:23:30;102236.47;;;21.82;30.43
66887;BME280;67239;51.680;5.976;2023-05-19T13:26:15;102239.06;;;21.50;30.49
66887;BME280;67239;51.680;5.976;2023-05-19T13:29:01;102236.28;;;21.51;30.22
66887;BME280;67239;51.680;5.976;2023-05-19T13:31:47;102225.66;;;21.50;30.96
66887;BME280;67239;51.680;5.976;2023-05-19T13:34:32;102227.03;;;21.57;31.22
66887;BME280;67239;51.680;5.976;2023-05-19T13:37:17;102221.75;;;21.39;31.51
66887;BME280;67239;51.680;5.976;2023-05-19T13:40:03;102228.31;;;21.34;31.45
66887;BME280;67239;51.680;5.976;2023-05-19T13:42:49;102222.59;;;21.40;31.76
66887;BME280;67239;51.680;5.976;2023-05-19T13:45:34;102221.78;;;21.55;31.04
66887;BME280;67239;51.680;5.976;2023-05-19T13:48:19;102220.50;;;21.63;31.40
66887;BME280;67239;51.680;5.976;2023-05-19T13:51:05;102212.72;;;21.74;30.54
66887;BME280;67239;51.680;5.976;2023-05-19T13:53:50;102211.09;;;21.71;30.42
66887;BME280;67239;51.680;5.976;2023-05-19T13:56:35;102215.94;;;21.97;30.77
66887;BME280;67239;51.680;5.976;2023-05-19T13:59:21;102215.72;;;22.16;30.36
66887;BME280;67239;51.680;5.976;2023-05-19T14:02:07;102205.13;;;22.29;30.27
66887;BME280;67239;51.680;5.976;2023-05-19T14:04:58;102209.88;;;21.77;30.79
66887;BME280;67239;51.680;5.976;2023-05-19T14:07:46;102219.19;;;21.20;31.09
66887;BME280;67239;51.680;5.976;2023-05-19T14:10:32;102218.63;;;21.14;32.18
66887;BME280;67239;51.680;5.976;2023-05-19T14:13:18;102206.44;;;21.41;31.80
66887;BME280;67239;51.680;5.976;2023-05-19T14:16:18;102206.22;;;21.78;29.78
66887;BME280;67239;51.680;5.976;2023-05-19T14:19:06;102206.75;;;21.85;30.89
66887;BME280;67239;51.680;5.976;2023-05-19T14:21:52;102203.34;;;22.13;30.57
66887;BME280;67239;51.680;5.976;2023-05-19T14:24:38;102200.25;;;22.36;30.00
66887;BME280;67239;51.680;5.976;2023-05-19T14:27:27;102199.97;;;22.56;30.67
66887;BME280;67239;51.680;5.976;2023-05-19T14:30:12;102198.72;;;22.92;29.60
66887;BME280;67239;51.680;5.976;2023-05-19T14:32:58;102203.06;;;22.64;29.67
66887;BME280;67239;51.680;5.976;2023-05-19T14:35:45;102202.41;;;21.98;30.32
66887;BME280;67239;51.680;5.976;2023-05-19T14:38:31;102196.88;;;21.69;30.69
66887;BME280;67239;51.680;5.976;2023-05-19T14:41:16;102197.47;;;21.75;30.70
66887;BME280;67239;51.680;5.976;2023-05-19T14:44:04;102197.47;;;21.91;30.01
66887;BME280;67239;51.680;5.976;2023-05-19T14:46:49;102202.41;;;21.82;30.09
66887;BME280;67239;51.680;5.976;2023-05-19T14:49:35;102190.47;;;21.88;30.41
66887;BME280;67239;51.680;5.976;2023-05-19T14:52:20;102190.19;;;22.09;30.41
66887;BME280;67239;51.680;5.976;2023-05-19T14:55:07;102183.63;;;22.29;29.76